createdAt,value
2022-12-19T00:02:48.302Z,10.55
2022-12-19T00:05:57.238Z,11.20
2022-12-19T00:09:08.399Z,11.10
2022-12-19T00:12:19.267Z,9.85
2022-12-19T00:15:25.385Z,10.98
2022-12-19T00:18:31.727Z,9.75
2022-12-19T00:21:39.635Z,11.78
2022-12-19T00:24:47.670Z,10.00
2022-12-19T00:27:54.727Z,12.10
2022-12-19T00:31:04.411Z,12.35
2022-12-19T00:34:09.419Z,11.25
2022-12-19T00:37:15.786Z,12.18
2022-12-19T00:40:22.756Z,10.05
2022-12-19T00:43:32.036Z,11.05
2022-12-19T00:46:38.913Z,10.45
2022-12-19T00:49:46.186Z,9.75
2022-12-19T00:52:54.246Z,10.38
2022-12-19T00:56:00.472Z,9.70
2022-12-19T00:59:08.801Z,10.23
2022-12-19T01:02:14.200Z,11.35
2022-12-19T01:05:21.913Z,12.55
2022-12-19T01:08:29.227Z,11.35
2022-12-19T01:11:55.535Z,12.78
2022-12-19T01:15:04.547Z,13.05
2022-12-19T01:18:09.287Z,13.40
2022-12-19T01:21:20.305Z,12.70
2022-12-19T01:24:26.621Z,13.62
2022-12-19T01:27:32.310Z,12.05
2022-12-19T01:30:37.545Z,10.63
2022-12-19T01:33:44.569Z,11.15
2022-12-19T01:36:51.857Z,11.28
2022-12-19T01:39:58.757Z,13.00
2022-12-19T01:43:05.525Z,12.23
2022-12-19T01:46:18.831Z,12.37
2022-12-19T01:49:49.890Z,10.70
2022-12-19T01:52:56.990Z,11.18
2022-12-19T01:56:10.500Z,11.30
2022-12-19T02:01:58.423Z,10.80
2022-12-19T02:04:52.455Z,9.98
2022-12-19T02:07:57.469Z,13.32
2022-12-19T02:11:02.881Z,12.23
2022-12-19T02:14:08.502Z,12.80
2022-12-19T02:17:29.097Z,12.45
2022-12-19T02:21:12.485Z,15.45
2022-12-19T02:25:13.023Z,14.25
2022-12-19T02:28:48.464Z,13.55
2022-12-19T02:32:08.415Z,12.30
2022-12-19T02:35:39.330Z,13.65
2022-12-19T02:39:03.385Z,12.05
2022-12-19T02:42:13.956Z,13.58
2022-12-19T02:45:28.342Z,16.82
2022-12-19T02:48:28.900Z,13.20
2022-12-19T02:51:35.950Z,13.75
2022-12-19T02:54:44.989Z,13.05
2022-12-19T02:58:05.893Z,14.10
2022-12-19T03:01:16.045Z,12.45
2022-12-19T03:04:47.996Z,16.15
2022-12-19T03:08:23.497Z,11.93
2022-12-19T03:11:29.661Z,14.15
2022-12-19T03:14:38.010Z,15.18
2022-12-19T03:17:43.068Z,13.48
2022-12-19T03:21:03.811Z,15.78
2022-12-19T03:24:09.701Z,14.50
2022-12-19T03:27:35.550Z,13.00
2022-12-19T03:30:42.587Z,13.72
2022-12-19T03:33:49.161Z,14.10
2022-12-19T03:36:58.113Z,13.98
2022-12-19T03:40:09.647Z,15.98
2022-12-19T03:43:18.932Z,16.15
2022-12-19T03:46:33.012Z,13.93
2022-12-19T03:49:39.400Z,13.62
2022-12-19T03:53:07.702Z,14.00
2022-12-19T03:56:30.499Z,17.60
2022-12-19T03:59:49.955Z,12.85
2022-12-19T04:02:59.921Z,13.95
2022-12-19T04:06:05.041Z,14.30
2022-12-19T04:09:12.214Z,14.73
2022-12-19T04:12:23.469Z,11.18
2022-12-19T04:15:29.922Z,12.95
2022-12-19T04:18:34.669Z,12.80
2022-12-19T04:21:48.427Z,12.37
2022-12-19T04:24:56.718Z,13.05
2022-12-19T04:28:06.838Z,13.13
2022-12-19T04:31:13.239Z,13.65
2022-12-19T04:34:18.204Z,14.45
2022-12-19T04:37:25.165Z,14.25
2022-12-19T04:40:35.431Z,16.12
2022-12-19T04:43:40.405Z,16.93
2022-12-19T04:46:46.506Z,16.55
2022-12-19T04:49:52.031Z,25.05
2022-12-19T04:52:57.805Z,26.12
2022-12-19T04:56:02.682Z,45.45
2022-12-19T04:59:13.717Z,30.92
2022-12-19T05:02:21.872Z,21.68
2022-12-19T05:05:29.195Z,19.75
2022-12-19T05:08:36.058Z,19.45
2022-12-19T05:11:41.989Z,21.17
2022-12-19T05:14:47.685Z,19.85
2022-12-19T05:17:53.848Z,24.35
2022-12-19T05:21:02.865Z,27.65
2022-12-19T05:24:08.591Z,21.23
2022-12-19T05:27:13.393Z,15.23
2022-12-19T05:30:20.096Z,20.30
2022-12-19T05:33:28.390Z,20.95
2022-12-19T05:36:34.297Z,18.45
2022-12-19T05:39:43.954Z,17.17
2022-12-19T05:42:55.431Z,17.95
2022-12-19T05:46:02.392Z,17.82
2022-12-19T05:49:07.777Z,16.55
2022-12-19T05:52:13.651Z,20.32
2022-12-19T05:55:18.299Z,17.48
2022-12-19T05:58:26.559Z,19.32
2022-12-19T06:01:38.020Z,21.93
2022-12-19T06:04:45.310Z,16.60
2022-12-19T06:07:51.519Z,19.55
2022-12-19T06:10:56.799Z,20.55
2022-12-19T06:14:03.420Z,19.30
2022-12-19T06:17:08.586Z,20.20
2022-12-19T06:20:33.462Z,17.05
2022-12-19T06:23:46.336Z,17.50
2022-12-19T06:26:58.006Z,19.57
2022-12-19T06:30:03.335Z,15.65
2022-12-19T06:33:08.164Z,18.42
2022-12-19T06:36:19.700Z,17.80
2022-12-19T06:39:29.512Z,20.30
2022-12-19T06:42:34.891Z,17.67
2022-12-19T06:45:43.419Z,21.23
2022-12-19T06:48:50.415Z,16.05
2022-12-19T06:51:56.862Z,16.80
2022-12-19T06:55:04.736Z,16.35
2022-12-19T06:58:10.300Z,18.42
2022-12-19T07:01:17.615Z,17.73
2022-12-19T07:04:24.319Z,15.08
2022-12-19T07:07:31.903Z,19.15
2022-12-19T07:10:41.213Z,19.67
2022-12-19T07:13:49.646Z,19.70
2022-12-19T07:16:56.787Z,16.23
2022-12-19T07:20:19.633Z,29.60
2022-12-19T07:23:27.952Z,27.90
2022-12-19T07:26:33.952Z,32.00
2022-12-19T07:29:39.007Z,69.03
2022-12-19T07:32:46.989Z,33.88
2022-12-19T07:35:54.047Z,36.33
2022-12-19T07:38:59.567Z,20.48
2022-12-19T07:42:09.173Z,17.23
2022-12-19T07:45:16.312Z,15.48
2022-12-19T07:48:21.665Z,23.70
2022-12-19T07:51:27.883Z,20.65
2022-12-19T07:54:34.934Z,15.58
2022-12-19T07:57:40.813Z,19.02
2022-12-19T08:00:48.746Z,18.17
2022-12-19T08:03:54.549Z,15.28
2022-12-19T08:07:03.267Z,20.50
2022-12-19T08:10:15.392Z,18.83
2022-12-19T08:13:22.443Z,15.23
2022-12-19T08:16:29.170Z,16.85
2022-12-19T08:19:35.546Z,18.85
2022-12-19T08:22:45.360Z,15.65
2022-12-19T08:26:01.905Z,12.47
2022-12-19T08:29:09.691Z,15.03
2022-12-19T08:32:20.779Z,14.85
2022-12-19T08:35:25.389Z,15.30
2022-12-19T08:38:32.384Z,12.60
2022-12-19T08:41:38.964Z,13.98
2022-12-19T08:44:44.753Z,13.93
2022-12-19T08:47:53.052Z,13.80
2022-12-19T08:51:12.437Z,16.12
2022-12-19T08:54:19.959Z,14.75
2022-12-19T08:57:27.701Z,14.43
2022-12-19T09:00:37.572Z,20.00
2022-12-19T09:04:15.516Z,18.52
2022-12-19T09:06:51.846Z,12.95
2022-12-19T09:09:57.314Z,15.43
2022-12-19T09:13:03.036Z,41.35
2022-12-19T09:16:22.374Z,19.23
2022-12-19T09:19:27.715Z,13.65
2022-12-19T09:22:33.317Z,12.28
2022-12-19T09:25:38.191Z,15.45
2022-12-19T09:28:44.173Z,16.62
2022-12-19T09:31:55.633Z,14.50
2022-12-19T09:34:58.040Z,13.00
2022-12-19T09:38:02.681Z,14.20
2022-12-19T09:41:36.482Z,13.50
2022-12-19T09:45:18.128Z,14.23
2022-12-19T09:48:25.282Z,16.00
2022-12-19T09:51:47.564Z,21.35
2022-12-19T09:54:59.053Z,27.93
2022-12-19T09:58:21.010Z,21.97
2022-12-19T10:01:53.124Z,20.65
2022-12-19T10:06:25.895Z,12.20
2022-12-19T10:08:45.471Z,10.72
2022-12-19T10:12:45.532Z,10.18
2022-12-19T10:16:00.534Z,11.60
2022-12-19T10:19:16.450Z,11.05
2022-12-19T10:22:43.968Z,11.00
2022-12-19T10:26:08.168Z,11.50
2022-12-19T10:29:36.209Z,11.45
2022-12-19T10:37:25.550Z,12.63
2022-12-19T10:40:28.527Z,13.58
2022-12-19T10:43:51.155Z,19.30
2022-12-19T10:47:00.742Z,15.68
2022-12-19T10:50:09.914Z,12.07
2022-12-19T10:53:23.473Z,12.47
2022-12-19T10:56:38.801Z,13.22
2022-12-19T10:59:45.697Z,24.40
2022-12-19T11:02:56.395Z,15.25
2022-12-19T11:06:06.632Z,14.05
2022-12-19T11:09:36.295Z,17.40
2022-12-19T11:16:42.098Z,11.00
2022-12-19T11:23:15.531Z,10.85
2022-12-19T11:25:56.666Z,14.53
2022-12-19T11:29:46.486Z,9.13
2022-12-19T11:30:42.999Z,9.70
2022-12-19T11:32:53.561Z,9.53
2022-12-19T11:36:13.819Z,9.98
2022-12-19T11:39:20.480Z,11.70
2022-12-19T11:43:10.958Z,14.00
2022-12-19T11:46:34.385Z,10.20
2022-12-19T11:49:52.163Z,11.10
2022-12-19T11:53:26.120Z,34.00
2022-12-19T11:56:34.567Z,15.28
2022-12-19T11:59:49.501Z,16.40
2022-12-19T12:03:16.727Z,13.55
2022-12-19T12:06:31.602Z,12.63
2022-12-19T12:14:27.553Z,10.05
2022-12-19T12:16:21.055Z,11.05
2022-12-19T12:31:00.175Z,12.80
2022-12-19T12:31:05.268Z,12.25
2022-12-19T12:31:07.828Z,12.82
2022-12-19T12:32:02.268Z,12.80
2022-12-19T12:36:53.029Z,14.95
2022-12-19T12:38:46.225Z,10.32
2022-12-19T12:42:14.371Z,14.33
2022-12-19T12:45:30.980Z,12.13
2022-12-19T12:49:03.193Z,16.90
2022-12-19T12:52:04.177Z,13.98
2022-12-19T12:55:09.856Z,9.80
2022-12-19T12:58:20.860Z,22.80
2022-12-19T13:01:41.119Z,12.13
2022-12-19T13:04:53.994Z,15.03
2022-12-19T13:08:07.873Z,12.28
2022-12-19T13:11:52.172Z,11.33
2022-12-19T13:15:02.744Z,11.63
2022-12-19T13:18:13.190Z,13.72
2022-12-19T13:21:20.700Z,23.07
2022-12-19T13:24:33.497Z,19.00
2022-12-19T13:27:48.973Z,28.87
2022-12-19T13:31:21.088Z,16.97
2022-12-19T13:34:33.030Z,14.00
2022-12-19T13:39:59.033Z,11.20
2022-12-19T13:41:19.484Z,11.93
2022-12-19T13:44:26.388Z,14.53
2022-12-19T13:47:32.635Z,11.20
2022-12-19T13:50:51.175Z,17.20
2022-12-19T13:53:59.854Z,21.37
2022-12-19T13:57:09.672Z,12.78
2022-12-19T14:00:16.500Z,21.75
2022-12-19T14:03:31.780Z,26.20
2022-12-19T14:06:44.653Z,19.32
2022-12-19T14:11:28.817Z,20.48
2022-12-19T14:13:56.768Z,17.07
2022-12-19T14:16:43.552Z,20.45
2022-12-19T14:19:42.430Z,21.52
2022-12-19T14:23:09.070Z,20.97
2022-12-19T14:30:28.525Z,11.12
2022-12-19T14:33:46.642Z,11.90
2022-12-19T14:36:21.633Z,28.05
2022-12-19T14:39:32.061Z,24.47
2022-12-19T14:43:56.613Z,23.15
2022-12-19T14:52:51.900Z,16.02
2022-12-19T14:53:34.303Z,20.92
2022-12-19T14:54:50.557Z,25.27
2022-12-19T14:56:54.200Z,18.40
2022-12-19T14:59:52.534Z,21.70
2022-12-19T15:02:59.061Z,15.55
2022-12-19T15:07:05.202Z,16.30
2022-12-19T15:11:03.268Z,15.98
2022-12-19T15:14:48.023Z,18.40
2022-12-19T15:16:08.314Z,22.20
2022-12-19T15:19:15.604Z,27.73
2022-12-19T15:22:21.202Z,28.50
2022-12-19T15:28:47.219Z,20.32
2022-12-19T15:31:56.583Z,11.73
2022-12-19T15:35:02.841Z,14.50
2022-12-19T15:38:08.941Z,18.52
2022-12-19T15:41:14.709Z,15.23
2022-12-19T15:44:37.290Z,17.65
2022-12-19T15:47:51.472Z,22.20
2022-12-19T15:50:57.735Z,17.98
2022-12-19T15:57:11.931Z,16.15
2022-12-19T16:00:22.666Z,11.80
2022-12-19T16:03:29.959Z,12.90
2022-12-19T16:06:35.736Z,15.00
2022-12-19T16:09:41.810Z,14.45
2022-12-19T16:12:50.718Z,15.25
2022-12-19T16:15:57.453Z,14.93
2022-12-19T16:19:03.323Z,16.85
2022-12-19T16:22:08.504Z,13.83
2022-12-19T16:25:15.420Z,18.57
2022-12-19T16:28:20.787Z,14.30
2022-12-19T16:31:33.336Z,13.93
2022-12-19T16:34:39.787Z,22.22
2022-12-19T16:37:47.189Z,17.87
2022-12-19T16:40:53.433Z,16.35
2022-12-19T16:43:59.559Z,12.93
2022-12-19T16:47:06.072Z,12.50
2022-12-19T16:50:11.160Z,14.58
2022-12-19T16:53:16.733Z,13.20
2022-12-19T16:56:25.703Z,14.58
2022-12-19T16:59:47.787Z,16.07
2022-12-19T17:02:57.976Z,14.58
2022-12-19T17:06:03.264Z,23.32
2022-12-19T17:09:08.511Z,21.97
2022-12-19T17:12:16.523Z,18.25
2022-12-19T17:15:36.667Z,14.58
2022-12-19T17:18:48.913Z,14.45
2022-12-19T17:21:55.387Z,14.05
2022-12-19T17:25:01.748Z,22.90
2022-12-19T17:28:07.048Z,17.20
2022-12-19T17:31:17.635Z,20.55
2022-12-19T17:34:38.523Z,19.50
2022-12-19T17:37:43.501Z,20.32
2022-12-19T17:40:49.216Z,28.02
2022-12-19T17:43:56.818Z,30.23
2022-12-19T17:47:02.463Z,30.23
2022-12-19T17:50:08.215Z,32.08
2022-12-19T17:53:13.166Z,33.90
2022-12-19T17:56:18.873Z,42.30
2022-12-19T17:59:24.700Z,171.43
2022-12-19T18:02:39.480Z,99.28
2022-12-19T18:05:50.375Z,71.17
2022-12-19T18:08:59.620Z,41.92
2022-12-19T18:12:06.593Z,26.85
2022-12-19T18:15:13.288Z,26.68
2022-12-19T18:18:18.603Z,27.48
2022-12-19T18:21:32.407Z,38.02
2022-12-19T18:24:57.168Z,37.88
2022-12-19T18:28:04.828Z,39.92
2022-12-19T18:31:24.670Z,42.08
2022-12-19T18:34:37.258Z,47.13
2022-12-19T18:37:44.188Z,28.52
2022-12-19T18:40:50.962Z,22.20
2022-12-19T18:43:57.757Z,21.40
2022-12-19T18:47:09.340Z,25.23
2022-12-19T18:50:16.037Z,35.40
2022-12-19T18:53:32.771Z,40.52
2022-12-19T18:56:35.066Z,29.15
2022-12-19T18:59:41.456Z,25.32
2022-12-19T19:02:48.752Z,32.50
2022-12-19T19:05:57.626Z,35.25
2022-12-19T19:09:06.082Z,47.58
2022-12-19T19:12:17.582Z,67.65
2022-12-19T19:15:38.687Z,106.03
2022-12-19T19:18:53.505Z,89.50
2022-12-19T19:21:59.347Z,87.75
2022-12-19T19:25:06.802Z,73.00
2022-12-19T19:28:13.594Z,89.83
2022-12-19T19:31:18.610Z,81.65
2022-12-19T19:34:40.330Z,81.47
2022-12-19T19:37:46.700Z,73.83
2022-12-19T19:40:53.436Z,55.48
2022-12-19T19:43:59.736Z,48.38
2022-12-19T19:47:06.368Z,47.67
2022-12-19T19:50:13.091Z,42.98
2022-12-19T19:53:19.954Z,41.33
2022-12-19T19:56:25.780Z,40.75
2022-12-19T19:59:31.216Z,44.23
2022-12-19T20:02:37.229Z,44.08
2022-12-19T20:05:43.892Z,35.55
2022-12-19T20:08:50.074Z,31.90
2022-12-19T20:11:56.799Z,31.10
2022-12-19T20:15:03.505Z,28.12
2022-12-19T20:18:08.446Z,27.35
2022-12-19T20:21:17.441Z,29.25
2022-12-19T20:24:23.128Z,26.27
2022-12-19T20:27:30.357Z,31.80
2022-12-19T20:30:36.897Z,28.50
2022-12-19T20:33:43.852Z,32.08
2022-12-19T20:36:49.537Z,28.73
2022-12-19T20:39:58.828Z,41.27
2022-12-19T20:43:06.112Z,39.48
2022-12-19T20:46:21.632Z,42.08
2022-12-19T20:49:28.535Z,47.13
2022-12-19T20:52:33.636Z,64.47
2022-12-19T20:55:38.924Z,87.92
2022-12-19T20:58:45.789Z,84.95
2022-12-19T21:01:51.922Z,100.97
2022-12-19T21:04:59.496Z,78.87
2022-12-19T21:08:06.323Z,53.05
2022-12-19T21:11:12.251Z,41.30
2022-12-19T21:14:18.004Z,39.13
2022-12-19T21:17:24.435Z,34.30
2022-12-19T21:20:34.576Z,30.00
2022-12-19T21:23:40.642Z,37.83
2022-12-19T21:26:46.437Z,37.25
2022-12-19T21:29:52.652Z,38.53
2022-12-19T21:32:58.704Z,41.42
2022-12-19T21:36:03.812Z,56.42
2022-12-19T21:39:11.376Z,59.08
2022-12-19T21:42:17.905Z,64.03
2022-12-19T21:45:26.420Z,60.25
2022-12-19T21:48:32.553Z,61.10
2022-12-19T21:51:40.465Z,71.33
2022-12-19T21:54:46.751Z,64.10
2022-12-19T21:57:55.819Z,59.03
2022-12-19T22:01:07.672Z,48.00
2022-12-19T22:04:21.729Z,37.83
2022-12-19T22:07:27.731Z,30.95
2022-12-19T22:10:32.784Z,27.07
2022-12-19T22:13:40.395Z,40.78
2022-12-19T22:16:47.674Z,41.53
2022-12-19T22:19:56.243Z,36.90
2022-12-19T22:23:01.872Z,34.13
2022-12-19T22:26:29.736Z,34.80
2022-12-19T22:29:35.239Z,31.15
2022-12-19T22:32:44.187Z,29.63
2022-12-19T22:35:51.020Z,30.95
2022-12-19T22:38:58.195Z,34.18
2022-12-19T22:42:04.506Z,28.12
2022-12-19T22:45:10.997Z,29.07
2022-12-19T22:48:16.102Z,34.48
2022-12-19T22:51:21.869Z,36.70
2022-12-19T22:54:28.608Z,38.85
2022-12-19T22:57:34.554Z,38.13
2022-12-19T23:00:39.751Z,40.25
2022-12-19T23:03:46.293Z,51.53
2022-12-19T23:06:52.483Z,56.98
2022-12-19T23:09:59.838Z,64.55
2022-12-19T23:13:04.697Z,79.72
2022-12-19T23:16:12.465Z,76.70
2022-12-19T23:19:20.738Z,64.90
2022-12-19T23:22:26.995Z,57.70
2022-12-19T23:25:34.672Z,57.58
2022-12-19T23:28:40.335Z,46.75
2022-12-19T23:31:48.035Z,38.83
2022-12-19T23:34:55.130Z,35.00
2022-12-19T23:38:00.847Z,32.60
2022-12-19T23:41:06.315Z,32.25
2022-12-19T23:44:12.558Z,49.10
2022-12-19T23:47:17.639Z,54.23
2022-12-19T23:50:24.716Z,60.17
2022-12-19T23:53:29.917Z,60.58
2022-12-19T23:56:39.771Z,55.23
2022-12-19T23:59:45.709Z,54.15
